createdAt,value
2018-08-12T00:01:46.955Z,11.55
2018-08-12T00:06:51.903Z,11.53
2018-08-12T00:11:56.980Z,11.42
2018-08-12T00:17:01.919Z,11.62
2018-08-12T00:22:06.964Z,11.47
2018-08-12T00:27:11.965Z,11.30
2018-08-12T00:32:18.129Z,11.13
2018-08-12T00:37:23.213Z,11.21
2018-08-12T00:42:28.150Z,10.98
2018-08-12T00:47:32.976Z,10.80
2018-08-12T00:52:37.990Z,10.83
2018-08-12T00:57:44.149Z,10.80
2018-08-12T01:02:49.249Z,10.92
2018-08-12T01:07:54.086Z,10.54
2018-08-12T01:12:59.203Z,10.61
2018-08-12T01:18:05.126Z,10.39
2018-08-12T01:23:10.010Z,10.37
2018-08-12T01:28:15.104Z,10.34
2018-08-12T01:33:20.020Z,10.34
2018-08-12T01:38:24.854Z,10.00
2018-08-12T01:43:29.700Z,10.11
2018-08-12T01:48:34.736Z,10.06
2018-08-12T01:53:39.614Z,9.97
2018-08-12T01:58:44.564Z,9.87
2018-08-12T02:03:49.510Z,9.89
2018-08-12T02:08:54.391Z,9.96
2018-08-12T02:13:59.356Z,9.68
2018-08-12T02:19:04.291Z,9.58
2018-08-12T02:24:10.053Z,9.62
2018-08-12T02:29:15.035Z,9.59
2018-08-12T02:34:19.909Z,9.50
2018-08-12T02:39:24.905Z,9.38
2018-08-12T02:44:29.855Z,9.28
2018-08-12T02:49:34.744Z,9.25
2018-08-12T02:54:39.583Z,9.14
2018-08-12T02:59:44.473Z,9.30
2018-08-12T03:04:49.369Z,9.04
2018-08-12T03:09:54.173Z,9.01
2018-08-12T03:14:59.164Z,9.02
2018-08-12T03:20:04.239Z,9.04
2018-08-12T03:25:10.509Z,9.25
2018-08-12T03:30:15.441Z,8.97
2018-08-12T03:35:20.348Z,8.93
2018-08-12T03:40:25.522Z,8.93
2018-08-12T03:45:30.459Z,8.82
2018-08-12T03:50:35.474Z,8.71
2018-08-12T03:55:40.254Z,8.99
2018-08-12T04:00:45.064Z,8.84
2018-08-12T04:05:50.046Z,8.89
2018-08-12T04:10:54.908Z,8.79
2018-08-12T04:15:59.794Z,8.68
2018-08-12T04:21:04.666Z,8.94
2018-08-12T04:26:09.593Z,8.90
2018-08-12T04:31:14.437Z,9.05
2018-08-12T04:36:19.308Z,9.74
2018-08-12T04:41:24.041Z,10.62
2018-08-12T04:46:28.798Z,11.23
2018-08-12T04:51:33.564Z,12.48
2018-08-12T04:56:38.606Z,13.09
2018-08-12T05:01:43.374Z,14.07
2018-08-12T05:06:48.223Z,15.52
2018-08-12T05:11:52.998Z,14.50
2018-08-12T05:16:57.805Z,15.34
2018-08-12T05:22:02.557Z,14.90
2018-08-12T05:27:07.539Z,14.03
2018-08-12T05:32:12.448Z,13.53
2018-08-12T05:37:17.158Z,12.94
2018-08-12T05:42:21.849Z,12.86
2018-08-12T05:47:26.569Z,12.96
2018-08-12T05:52:31.326Z,13.98
2018-08-12T05:57:36.196Z,14.59
2018-08-12T06:02:41.125Z,15.47
2018-08-12T06:07:45.930Z,16.08
2018-08-12T06:12:50.821Z,15.81
2018-08-12T06:17:55.792Z,15.34
2018-08-12T06:23:00.544Z,14.71
2018-08-12T06:28:05.367Z,14.73
2018-08-12T06:33:10.212Z,15.76
2018-08-12T06:38:14.923Z,14.99
2018-08-12T06:43:19.713Z,14.86
2018-08-12T06:48:24.406Z,15.02
2018-08-12T06:53:29.501Z,15.48
2018-08-12T06:58:34.196Z,15.92
2018-08-12T07:03:39.004Z,16.08
2018-08-12T07:08:43.733Z,16.74
2018-08-12T07:13:48.480Z,17.33
2018-08-12T07:18:53.277Z,17.83
2018-08-12T07:23:58.061Z,17.30
2018-08-12T07:29:02.908Z,17.53
2018-08-12T07:34:08.054Z,18.32
2018-08-12T07:39:12.873Z,19.38
2018-08-12T07:44:17.613Z,19.41
2018-08-12T07:49:22.406Z,19.81
2018-08-12T07:54:27.254Z,19.93
2018-08-12T07:59:32.224Z,20.66
2018-08-12T08:04:36.947Z,20.64
2018-08-12T08:09:41.975Z,21.49
2018-08-12T08:14:46.764Z,21.02
2018-08-12T08:19:51.681Z,21.30
2018-08-12T08:24:56.471Z,21.57
2018-08-12T08:30:01.358Z,21.95
2018-08-12T08:35:06.106Z,21.46
2018-08-12T08:40:14.525Z,22.24
2018-08-12T08:45:21.404Z,22.30
2018-08-12T08:50:26.276Z,22.59
2018-08-12T08:55:31.042Z,22.93
2018-08-12T09:00:35.776Z,23.17
2018-08-12T09:05:40.620Z,23.19
2018-08-12T09:10:45.450Z,24.12
2018-08-12T09:15:50.274Z,23.84
2018-08-12T09:20:55.025Z,24.15
2018-08-12T09:25:59.834Z,24.32
2018-08-12T09:31:04.695Z,24.52
2018-08-12T09:36:09.586Z,25.15
2018-08-12T09:41:14.406Z,25.12
2018-08-12T09:46:19.114Z,25.15
2018-08-12T09:51:23.954Z,25.71
2018-08-12T09:56:28.718Z,25.09
2018-08-12T10:01:33.507Z,25.59
2018-08-12T10:06:38.304Z,26.10
2018-08-12T10:11:43.220Z,26.14
2018-08-12T10:16:48.261Z,26.04
2018-08-12T10:21:53.054Z,26.66
2018-08-12T10:26:57.859Z,26.26
2018-08-12T10:32:02.521Z,26.30
2018-08-12T10:37:07.314Z,26.30
2018-08-12T10:42:12.204Z,26.32
2018-08-12T10:47:16.995Z,26.91
2018-08-12T10:52:21.848Z,27.13
2018-08-12T10:57:26.755Z,27.43
2018-08-12T11:02:31.637Z,27.05
2018-08-12T11:07:36.530Z,27.50
2018-08-12T11:12:41.588Z,27.11
2018-08-12T11:17:46.310Z,27.26
2018-08-12T11:22:51.107Z,27.58
2018-08-12T11:27:56.033Z,27.70
2018-08-12T11:33:00.976Z,27.62
2018-08-12T11:38:05.827Z,28.00
2018-08-12T11:43:10.777Z,27.44
2018-08-12T11:48:15.784Z,28.09
2018-08-12T11:53:20.913Z,27.31
2018-08-12T11:58:25.711Z,27.81
2018-08-12T12:03:30.585Z,28.09
2018-08-12T12:08:35.340Z,28.96
2018-08-12T12:13:40.170Z,28.19
2018-08-12T12:18:44.940Z,28.27
2018-08-12T12:23:49.996Z,28.67
2018-08-12T12:28:54.863Z,28.62
2018-08-12T12:33:59.679Z,28.93
2018-08-12T12:39:06.777Z,28.73
2018-08-12T12:44:11.634Z,29.04
2018-08-12T12:49:16.707Z,28.99
2018-08-12T12:54:21.399Z,29.31
2018-08-12T12:59:26.091Z,29.14
2018-08-12T13:04:30.939Z,29.63
2018-08-12T13:09:35.744Z,29.86
2018-08-12T13:14:40.502Z,29.25
2018-08-12T13:19:45.363Z,29.19
2018-08-12T13:24:50.231Z,29.60
2018-08-12T13:29:55.077Z,29.89
2018-08-12T13:34:59.949Z,29.69
2018-08-12T13:40:06.381Z,29.55
2018-08-12T13:45:12.373Z,29.63
2018-08-12T13:50:22.678Z,29.65
2018-08-12T13:55:27.409Z,30.44
2018-08-12T14:00:32.162Z,29.89
2018-08-12T14:05:36.980Z,29.97
2018-08-12T14:10:41.686Z,30.67
2018-08-12T14:15:46.530Z,30.53
2018-08-12T14:20:51.470Z,30.30
2018-08-12T14:25:56.145Z,29.98
2018-08-12T14:31:00.869Z,30.46
2018-08-12T14:36:05.619Z,31.01
2018-08-12T14:41:10.385Z,31.21
2018-08-12T14:46:15.186Z,31.54
2018-08-12T14:51:20.165Z,30.85
2018-08-12T14:56:24.815Z,31.04
2018-08-12T15:01:29.702Z,30.79
2018-08-12T15:06:34.523Z,30.55
2018-08-12T15:11:39.321Z,30.93
2018-08-12T15:16:44.140Z,30.74
2018-08-12T15:21:49.072Z,30.38
2018-08-12T15:26:53.854Z,30.33
2018-08-12T15:31:58.694Z,31.14
2018-08-12T15:37:03.540Z,31.45
2018-08-12T15:42:08.430Z,30.88
2018-08-12T15:47:13.089Z,30.60
2018-08-12T15:52:17.836Z,30.57
2018-08-12T15:57:22.680Z,30.55
2018-08-12T16:02:27.492Z,30.79
2018-08-12T16:07:32.352Z,30.75
2018-08-12T16:12:37.015Z,30.42
2018-08-12T16:17:42.434Z,30.19
2018-08-12T16:22:47.266Z,29.87
2018-08-12T16:27:52.097Z,29.80
2018-08-12T16:32:56.926Z,29.86
2018-08-12T16:38:01.801Z,30.37
2018-08-12T16:43:07.648Z,30.15
2018-08-12T16:48:12.360Z,30.05
2018-08-12T16:53:17.047Z,30.22
2018-08-12T16:58:21.914Z,29.64
2018-08-12T17:03:26.921Z,30.00
2018-08-12T17:08:31.746Z,29.23
2018-08-12T17:13:36.866Z,28.86
2018-08-12T17:18:41.915Z,27.86
2018-08-12T17:23:46.851Z,27.43
2018-08-12T17:28:51.669Z,27.00
2018-08-12T17:33:56.420Z,26.85
2018-08-12T17:39:01.192Z,26.54
2018-08-12T17:44:06.379Z,26.18
2018-08-12T17:49:11.150Z,26.01
2018-08-12T17:54:15.957Z,26.09
2018-08-12T17:59:20.757Z,25.89
2018-08-12T18:04:25.575Z,25.61
2018-08-12T18:09:30.279Z,25.36
2018-08-12T18:14:35.016Z,25.15
2018-08-12T18:19:39.725Z,24.87
2018-08-12T18:24:44.599Z,24.57
2018-08-12T18:29:49.425Z,24.13
2018-08-12T18:34:54.310Z,23.66
2018-08-12T18:39:59.432Z,23.30
2018-08-12T18:45:04.878Z,23.09
2018-08-12T18:50:11.453Z,22.44
2018-08-12T18:55:16.365Z,22.00
2018-08-12T19:00:21.060Z,22.10
2018-08-12T19:05:26.030Z,21.81
2018-08-12T19:10:30.928Z,21.35
2018-08-12T19:15:35.780Z,21.02
2018-08-12T19:20:40.867Z,20.81
2018-08-12T19:25:45.708Z,20.50
2018-08-12T19:30:50.689Z,20.43
2018-08-12T19:35:55.729Z,20.15
2018-08-12T19:41:01.069Z,19.96
2018-08-12T19:46:05.956Z,19.80
2018-08-12T19:51:11.309Z,19.73
2018-08-12T19:56:16.378Z,19.60
2018-08-12T20:01:21.377Z,19.29
2018-08-12T20:06:26.385Z,19.13
2018-08-12T20:11:31.314Z,18.88
2018-08-12T20:16:36.189Z,18.73
2018-08-12T20:21:41.401Z,18.60
2018-08-12T20:26:46.306Z,18.42
2018-08-12T20:31:51.222Z,18.34
2018-08-12T20:36:56.239Z,18.15
2018-08-12T20:42:01.206Z,17.92
2018-08-12T20:47:05.983Z,17.65
2018-08-12T20:52:11.008Z,17.48
2018-08-12T20:57:15.768Z,17.29
2018-08-12T21:02:20.590Z,17.48
2018-08-12T21:07:25.503Z,17.27
2018-08-12T21:12:30.327Z,17.20
2018-08-12T21:17:35.218Z,17.15
2018-08-12T21:22:40.425Z,17.14
2018-08-12T21:27:45.391Z,16.95
2018-08-12T21:32:50.144Z,16.82
2018-08-12T21:37:54.933Z,16.64
2018-08-12T21:42:59.672Z,16.52
2018-08-12T21:48:04.581Z,16.30
2018-08-12T21:53:09.402Z,16.36
2018-08-12T21:58:14.826Z,16.24
2018-08-12T22:03:19.738Z,16.23
2018-08-12T22:08:24.585Z,16.10
2018-08-12T22:13:29.348Z,15.96
2018-08-12T22:18:34.121Z,15.74
2018-08-12T22:23:39.038Z,15.59
2018-08-12T22:28:43.933Z,15.57
2018-08-12T22:33:48.785Z,15.51
2018-08-12T22:38:53.648Z,15.45
2018-08-12T22:43:58.475Z,15.32
2018-08-12T22:49:03.180Z,15.39
2018-08-12T22:54:08.010Z,15.37
2018-08-12T22:59:12.741Z,15.26
2018-08-12T23:04:17.564Z,15.07
2018-08-12T23:09:22.368Z,14.82
2018-08-12T23:14:27.052Z,14.70
2018-08-12T23:19:31.768Z,14.59
2018-08-12T23:24:36.510Z,14.60
2018-08-12T23:29:41.232Z,14.71
2018-08-12T23:34:45.975Z,14.62
2018-08-12T23:39:50.734Z,14.43
2018-08-12T23:44:55.438Z,14.34
2018-08-12T23:50:00.296Z,14.23
2018-08-12T23:55:05.318Z,14.06
